Startpagina
METAR-TAF:

METAR-TAF

Vliegvelden :

Luchthaven Shanghai Pudong

Shanghai-Pudong, China

breedte: 31-07N, lengte: 121-46E, hoogte: 4 m

Actueel weer

Dit bericht is 35 minuten geleden gemaakt, om 21:00 UTC
Wind 14 kt uit het noorden
Temperatuur 10°C
Vochtigheid 93%
Druk 1025 hPa
Zicht: 8000 m
Gebroken wolken op 600 ft
lichte regen

METAR: ZSPD 102100Z 01007MPS 8000 -RA BKN006 10/09 Q1025 NOSIG

Tijdstip: 05:35 (21:35 UTC)

Verwachting

Dit bericht is 6 uur en het 19 minuten geleden gemaakt, om 15:16 UTC
Verwachting geldig van 10 om 18 UTC tot 11 om 18 UTC
Wind 10 kt uit het noordoosten
Zicht: 6000 m
Gebroken wolken op 800 ft
Wijzigt naar
van 10 om 22 UTC tot 10 om 23 UTC
Wind 17 kt uit het noordnoordwesten met uitschieters tot 29 kt
Gebroken wolken op 1100 ft

TAF: ZSPD 101516Z 1018/1118 04005MPS 6000 BKN008 TX10/1106Z TN03/1020Z BECMG 1022/1023 34009G15MPS BKN011

Waarnemingen en weersverwachtingen van meer dan 4000 vliegvelden (METAR en TAF).

De beschikbare stations zijn de gele en rode punten op de kaart.

Ga met uw muis naar het station om de naam te zien.

Klik dan om waarnemingen en weersverwachtingen te zien.

kaart wijzigen: klik op de groene knoppen met een zwart kruis om in te zoomen, op de groene knop met een streepje om uit te zoomen of op de groene pijlen voor aangrenzende kaarten.


METAR-TAF: